sensor_id;sensor_type;location;lat;lon;timestamp;pressure;altitude;pressure_sealevel;temperature;humidity
37856;BME280;23694;43.274;26.924;2023-04-07T00:00:45;98646.63;;;5.80;51.10
37856;BME280;23694;43.274;26.924;2023-04-07T00:03:11;98641.91;;;5.71;51.01
37856;BME280;23694;43.274;26.924;2023-04-07T00:05:38;98644.44;;;5.72;51.04
37856;BME280;23694;43.274;26.924;2023-04-07T00:08:04;98635.28;;;5.65;51.33
37856;BME280;23694;43.274;26.924;2023-04-07T00:10:30;98631.03;;;5.80;50.88
37856;BME280;23694;43.274;26.924;2023-04-07T00:12:56;98639.00;;;5.77;51.14
37856;BME280;23694;43.274;26.924;2023-04-07T00:15:22;98634.53;;;5.79;51.00
37856;BME280;23694;43.274;26.924;2023-04-07T00:17:48;98631.94;;;5.79;50.60
37856;BME280;23694;43.274;26.924;2023-04-07T00:20:14;98633.38;;;5.85;50.62
37856;BME280;23694;43.274;26.924;2023-04-07T00:22:40;98628.44;;;5.80;51.00
37856;BME280;23694;43.274;26.924;2023-04-07T00:25:07;98625.00;;;5.80;50.21
37856;BME280;23694;43.274;26.924;2023-04-07T00:27:33;98628.34;;;5.82;50.26
37856;BME280;23694;43.274;26.924;2023-04-07T00:30:00;98633.88;;;5.76;50.34
37856;BME280;23694;43.274;26.924;2023-04-07T00:32:26;98634.38;;;5.82;50.16
37856;BME280;23694;43.274;26.924;2023-04-07T00:34:52;98629.41;;;5.62;49.96
37856;BME280;23694;43.274;26.924;2023-04-07T00:37:18;98632.00;;;5.62;50.17
37856;BME280;23694;43.274;26.924;2023-04-07T00:39:44;98637.97;;;5.64;50.06
37856;BME280;23694;43.274;26.924;2023-04-07T00:42:11;98636.28;;;5.63;50.42
37856;BME280;23694;43.274;26.924;2023-04-07T00:44:37;98641.56;;;5.61;50.36
37856;BME280;23694;43.274;26.924;2023-04-07T00:47:03;98640.66;;;5.62;49.81
37856;BME280;23694;43.274;26.924;2023-04-07T00:49:29;98640.97;;;5.56;50.13
37856;BME280;23694;43.274;26.924;2023-04-07T00:51:57;98642.13;;;5.51;50.65
37856;BME280;23694;43.274;26.924;2023-04-07T00:54:23;98644.81;;;5.49;50.62
37856;BME280;23694;43.274;26.924;2023-04-07T00:56:49;98630.66;;;5.55;50.47
37856;BME280;23694;43.274;26.924;2023-04-07T00:59:16;98639.88;;;5.60;49.90
37856;BME280;23694;43.274;26.924;2023-04-07T01:01:53;98636.03;;;5.67;50.00
37856;BME280;23694;43.274;26.924;2023-04-07T01:04:30;98643.84;;;5.67;50.02
37856;BME280;23694;43.274;26.924;2023-04-07T01:10:04;98633.84;;;5.60;50.29
37856;BME280;23694;43.274;26.924;2023-04-07T01:12:40;98635.38;;;5.64;50.04
37856;BME280;23694;43.274;26.924;2023-04-07T01:15:11;98639.03;;;5.44;50.73
37856;BME280;23694;43.274;26.924;2023-04-07T01:17:48;98646.97;;;5.41;51.26
37856;BME280;23694;43.274;26.924;2023-04-07T01:20:18;98645.56;;;5.51;50.92
37856;BME280;23694;43.274;26.924;2023-04-07T01:22:48;98643.66;;;5.55;49.95
37856;BME280;23694;43.274;26.924;2023-04-07T01:28:14;98646.25;;;5.55;50.16
37856;BME280;23694;43.274;26.924;2023-04-07T01:30:45;98650.13;;;5.63;50.27
37856;BME280;23694;43.274;26.924;2023-04-07T01:33:13;98652.84;;;5.45;51.26
37856;BME280;23694;43.274;26.924;2023-04-07T01:35:40;98660.47;;;5.48;50.32
37856;BME280;23694;43.274;26.924;2023-04-07T01:38:08;98655.53;;;5.43;50.88
37856;BME280;23694;43.274;26.924;2023-04-07T01:40:36;98645.50;;;5.53;50.27
37856;BME280;23694;43.274;26.924;2023-04-07T01:43:05;98653.28;;;5.53;50.76
37856;BME280;23694;43.274;26.924;2023-04-07T01:45:33;98651.03;;;5.62;50.35
37856;BME280;23694;43.274;26.924;2023-04-07T01:48:00;98658.63;;;5.50;50.81
37856;BME280;23694;43.274;26.924;2023-04-07T01:50:28;98660.16;;;5.54;51.03
37856;BME280;23694;43.274;26.924;2023-04-07T01:52:55;98658.41;;;5.54;50.90
37856;BME280;23694;43.274;26.924;2023-04-07T01:55:21;98657.41;;;5.57;50.93
37856;BME280;23694;43.274;26.924;2023-04-07T01:57:47;98664.50;;;5.53;50.97
37856;BME280;23694;43.274;26.924;2023-04-07T02:00:14;98661.19;;;5.67;51.08
37856;BME280;23694;43.274;26.924;2023-04-07T02:02:43;98661.19;;;5.67;51.26
37856;BME280;23694;43.274;26.924;2023-04-07T02:05:14;98654.59;;;5.77;50.15
37856;BME280;23694;43.274;26.924;2023-04-07T02:07:51;98655.22;;;5.65;50.08
37856;BME280;23694;43.274;26.924;2023-04-07T02:10:21;98662.28;;;5.79;50.38
37856;BME280;23694;43.274;26.924;2023-04-07T02:12:48;98664.97;;;5.77;49.87
37856;BME280;23694;43.274;26.924;2023-04-07T02:15:15;98653.41;;;5.83;50.05
37856;BME280;23694;43.274;26.924;2023-04-07T02:17:45;98660.38;;;5.82;50.12
37856;BME280;23694;43.274;26.924;2023-04-07T02:20:13;98661.19;;;5.67;50.58
37856;BME280;23694;43.274;26.924;2023-04-07T02:22:40;98663.53;;;5.71;50.92
37856;BME280;23694;43.274;26.924;2023-04-07T02:25:39;98662.88;;;5.68;50.88
37856;BME280;23694;43.274;26.924;2023-04-07T02:28:05;98657.94;;;5.79;50.57
37856;BME280;23694;43.274;26.924;2023-04-07T02:30:32;98663.72;;;5.84;49.79
37856;BME280;23694;43.274;26.924;2023-04-07T02:32:58;98666.31;;;5.84;49.69
37856;BME280;23694;43.274;26.924;2023-04-07T02:35:24;98671.25;;;5.90;49.72
37856;BME280;23694;43.274;26.924;2023-04-07T02:37:51;98670.34;;;5.91;49.29
37856;BME280;23694;43.274;26.924;2023-04-07T02:40:17;98664.91;;;5.79;49.71
37856;BME280;23694;43.274;26.924;2023-04-07T02:42:43;98675.38;;;5.77;49.76
37856;BME280;23694;43.274;26.924;2023-04-07T02:45:09;98661.94;;;5.69;50.13
37856;BME280;23694;43.274;26.924;2023-04-07T02:47:36;98673.22;;;5.85;49.36
37856;BME280;23694;43.274;26.924;2023-04-07T02:50:03;98676.59;;;5.87;49.04
37856;BME280;23694;43.274;26.924;2023-04-07T02:52:29;98676.72;;;5.84;48.96
37856;BME280;23694;43.274;26.924;2023-04-07T02:54:55;98673.84;;;5.90;48.76
37856;BME280;23694;43.274;26.924;2023-04-07T02:57:21;98676.81;;;5.83;49.76
37856;BME280;23694;43.274;26.924;2023-04-07T02:59:47;98674.91;;;5.86;49.41
37856;BME280;23694;43.274;26.924;2023-04-07T03:02:13;98673.28;;;6.01;48.47
37856;BME280;23694;43.274;26.924;2023-04-07T03:04:40;98685.44;;;5.83;48.76
37856;BME280;23694;43.274;26.924;2023-04-07T03:07:06;98679.09;;;5.89;48.86
37856;BME280;23694;43.274;26.924;2023-04-07T03:09:32;98674.38;;;5.97;47.81
37856;BME280;23694;43.274;26.924;2023-04-07T03:11:58;98683.69;;;6.01;48.25
37856;BME280;23694;43.274;26.924;2023-04-07T03:14:24;98687.13;;;6.01;48.11
37856;BME280;23694;43.274;26.924;2023-04-07T03:16:50;98688.03;;;6.00;48.38
37856;BME280;23694;43.274;26.924;2023-04-07T03:19:16;98682.34;;;5.94;48.81
37856;BME280;23694;43.274;26.924;2023-04-07T03:21:42;98689.13;;;5.96;48.54
37856;BME280;23694;43.274;26.924;2023-04-07T03:24:08;98688.38;;;5.94;48.72
37856;BME280;23694;43.274;26.924;2023-04-07T03:26:34;98681.50;;;6.09;48.63
37856;BME280;23694;43.274;26.924;2023-04-07T03:29:01;98692.06;;;6.06;47.91
37856;BME280;23694;43.274;26.924;2023-04-07T03:31:27;98687.19;;;6.00;49.22
37856;BME280;23694;43.274;26.924;2023-04-07T03:33:53;98690.03;;;5.95;48.54
37856;BME280;23694;43.274;26.924;2023-04-07T03:36:19;98688.97;;;5.99;48.82
37856;BME280;23694;43.274;26.924;2023-04-07T03:38:46;98689.38;;;6.08;48.18
37856;BME280;23694;43.274;26.924;2023-04-07T03:41:12;98694.06;;;6.01;48.55
37856;BME280;23694;43.274;26.924;2023-04-07T03:43:38;98699.16;;;5.87;48.41
37856;BME280;23694;43.274;26.924;2023-04-07T03:46:04;98699.53;;;5.96;47.90
37856;BME280;23694;43.274;26.924;2023-04-07T03:48:30;98704.72;;;5.96;48.20
37856;BME280;23694;43.274;26.924;2023-04-07T03:50:56;98705.16;;;6.04;48.11
37856;BME280;23694;43.274;26.924;2023-04-07T03:53:22;98703.72;;;5.99;48.52
37856;BME280;23694;43.274;26.924;2023-04-07T03:55:49;98710.34;;;6.04;48.01
37856;BME280;23694;43.274;26.924;2023-04-07T03:58:15;98716.28;;;5.91;47.55
37856;BME280;23694;43.274;26.924;2023-04-07T04:00:41;98719.16;;;5.85;47.31
37856;BME280;23694;43.274;26.924;2023-04-07T04:03:07;98721.22;;;5.78;47.97
37856;BME280;23694;43.274;26.924;2023-04-07T04:05:34;98725.34;;;5.82;47.95
37856;BME280;23694;43.274;26.924;2023-04-07T04:08:00;98729.38;;;5.89;47.80
37856;BME280;23694;43.274;26.924;2023-04-07T04:10:26;98736.84;;;5.95;47.41
37856;BME280;23694;43.274;26.924;2023-04-07T04:12:52;98736.16;;;5.92;47.08
37856;BME280;23694;43.274;26.924;2023-04-07T04:15:18;98738.75;;;5.92;47.45
37856;BME280;23694;43.274;26.924;2023-04-07T04:17:44;98734.38;;;5.75;49.01
37856;BME280;23694;43.274;26.924;2023-04-07T04:20:10;98736.16;;;5.74;48.18
37856;BME280;23694;43.274;26.924;2023-04-07T04:22:36;98743.13;;;5.91;49.71
37856;BME280;23694;43.274;26.924;2023-04-07T04:25:03;98737.59;;;5.97;48.41
37856;BME280;23694;43.274;26.924;2023-04-07T04:27:29;98747.44;;;6.08;47.21
37856;BME280;23694;43.274;26.924;2023-04-07T04:29:56;98743.06;;;6.09;47.88
37856;BME280;23694;43.274;26.924;2023-04-07T04:32:22;98746.03;;;6.34;47.33
37856;BME280;23694;43.274;26.924;2023-04-07T04:34:48;98742.59;;;6.33;46.44
37856;BME280;23694;43.274;26.924;2023-04-07T04:37:14;98748.69;;;6.17;48.22
37856;BME280;23694;43.274;26.924;2023-04-07T04:39:40;98754.00;;;6.31;46.20
37856;BME280;23694;43.274;26.924;2023-04-07T04:42:06;98759.91;;;6.01;45.86
37856;BME280;23694;43.274;26.924;2023-04-07T04:44:32;98757.66;;;5.61;48.13
37856;BME280;23694;43.274;26.924;2023-04-07T04:46:58;98751.78;;;5.40;49.08
37856;BME280;23694;43.274;26.924;2023-04-07T04:49:24;98755.00;;;5.28;49.83
37856;BME280;23694;43.274;26.924;2023-04-07T04:51:51;98765.28;;;5.12;49.64
37856;BME280;23694;43.274;26.924;2023-04-07T04:54:18;98763.91;;;5.05;50.50
37856;BME280;23694;43.274;26.924;2023-04-07T04:56:44;98767.50;;;5.20;50.37
37856;BME280;23694;43.274;26.924;2023-04-07T04:59:10;98774.50;;;5.00;51.41
37856;BME280;23694;43.274;26.924;2023-04-07T05:01:36;98774.59;;;5.16;51.37
37856;BME280;23694;43.274;26.924;2023-04-07T05:04:02;98773.25;;;5.26;51.62
37856;BME280;23694;43.274;26.924;2023-04-07T05:06:28;98772.81;;;4.99;51.88
37856;BME280;23694;43.274;26.924;2023-04-07T05:08:54;98770.31;;;4.98;51.99
37856;BME280;23694;43.274;26.924;2023-04-07T05:11:20;98779.31;;;5.08;50.28
37856;BME280;23694;43.274;26.924;2023-04-07T05:13:47;98779.13;;;5.30;51.34
37856;BME280;23694;43.274;26.924;2023-04-07T05:16:13;98786.25;;;5.44;49.54
37856;BME280;23694;43.274;26.924;2023-04-07T05:18:39;98781.41;;;5.70;49.07
37856;BME280;23694;43.274;26.924;2023-04-07T05:21:05;98785.53;;;5.57;48.36
37856;BME280;23694;43.274;26.924;2023-04-07T05:23:31;98786.09;;;5.47;48.46
37856;BME280;23694;43.274;26.924;2023-04-07T05:25:57;98786.28;;;5.77;47.95
37856;BME280;23694;43.274;26.924;2023-04-07T05:28:23;98788.81;;;5.78;48.89
37856;BME280;23694;43.274;26.924;2023-04-07T05:30:50;98781.56;;;6.02;47.99
37856;BME280;23694;43.274;26.924;2023-04-07T05:33:16;98797.03;;;6.21;48.14
37856;BME280;23694;43.274;26.924;2023-04-07T05:35:46;98798.47;;;6.42;46.89
37856;BME280;23694;43.274;26.924;2023-04-07T05:38:12;98788.66;;;6.47;45.54
37856;BME280;23694;43.274;26.924;2023-04-07T05:40:39;98803.34;;;6.32;46.26
37856;BME280;23694;43.274;26.924;2023-04-07T05:43:06;98794.59;;;6.18;46.27
37856;BME280;23694;43.274;26.924;2023-04-07T05:45:32;98802.50;;;6.48;46.27
37856;BME280;23694;43.274;26.924;2023-04-07T05:47:58;98795.75;;;6.77;45.30
37856;BME280;23694;43.274;26.924;2023-04-07T05:50:24;98791.22;;;6.80;45.01
37856;BME280;23694;43.274;26.924;2023-04-07T05:52:50;98798.41;;;6.91;44.57
37856;BME280;23694;43.274;26.924;2023-04-07T05:55:16;98793.19;;;7.07;44.23
37856;BME280;23694;43.274;26.924;2023-04-07T05:57:42;98800.22;;;7.36;42.45
37856;BME280;23694;43.274;26.924;2023-04-07T06:00:08;98796.81;;;7.50;42.28
37856;BME280;23694;43.274;26.924;2023-04-07T06:02:35;98804.19;;;7.72;42.26
37856;BME280;23694;43.274;26.924;2023-04-07T06:05:01;98801.28;;;7.92;43.65
37856;BME280;23694;43.274;26.924;2023-04-07T06:07:28;98810.50;;;8.12;43.55
37856;BME280;23694;43.274;26.924;2023-04-07T06:09:54;98818.53;;;8.09;41.12
37856;BME280;23694;43.274;26.924;2023-04-07T06:12:20;98814.25;;;7.63;41.24
37856;BME280;23694;43.274;26.924;2023-04-07T06:14:53;98819.66;;;7.75;42.21
37856;BME280;23694;43.274;26.924;2023-04-07T06:17:19;98820.09;;;7.53;44.01
37856;BME280;23694;43.274;26.924;2023-04-07T06:19:45;98823.91;;;7.91;42.39
37856;BME280;23694;43.274;26.924;2023-04-07T06:22:11;98818.81;;;8.18;41.85
37856;BME280;23694;43.274;26.924;2023-04-07T06:24:37;98813.41;;;8.21;40.80
37856;BME280;23694;43.274;26.924;2023-04-07T06:27:03;98819.53;;;8.06;42.67
37856;BME280;23694;43.274;26.924;2023-04-07T06:29:31;98835.59;;;7.40;40.88
37856;BME280;23694;43.274;26.924;2023-04-07T06:31:58;98819.84;;;7.72;40.75
37856;BME280;23694;43.274;26.924;2023-04-07T06:34:24;98822.69;;;7.83;40.56
37856;BME280;23694;43.274;26.924;2023-04-07T06:36:50;98824.56;;;7.95;40.85
37856;BME280;23694;43.274;26.924;2023-04-07T06:39:16;98838.75;;;8.05;40.81
37856;BME280;23694;43.274;26.924;2023-04-07T06:41:42;98835.75;;;8.11;38.67
37856;BME280;23694;43.274;26.924;2023-04-07T06:44:09;98835.28;;;8.05;38.34
37856;BME280;23694;43.274;26.924;2023-04-07T06:46:38;98844.88;;;8.04;39.29
37856;BME280;23694;43.274;26.924;2023-04-07T06:49:04;98845.19;;;8.14;39.92
37856;BME280;23694;43.274;26.924;2023-04-07T06:51:30;98842.09;;;8.21;39.87
37856;BME280;23694;43.274;26.924;2023-04-07T06:53:57;98846.00;;;8.00;40.29
37856;BME280;23694;43.274;26.924;2023-04-07T06:56:23;98846.66;;;8.04;40.60
37856;BME280;23694;43.274;26.924;2023-04-07T06:58:49;98842.28;;;8.04;39.17
37856;BME280;23694;43.274;26.924;2023-04-07T07:01:15;98847.69;;;8.15;39.61
37856;BME280;23694;43.274;26.924;2023-04-07T07:03:41;98841.81;;;8.12;39.30
37856;BME280;23694;43.274;26.924;2023-04-07T07:06:08;98846.38;;;8.08;38.92
37856;BME280;23694;43.274;26.924;2023-04-07T07:08:34;98853.00;;;8.28;38.78
37856;BME280;23694;43.274;26.924;2023-04-07T07:11:00;98849.69;;;8.40;38.29
37856;BME280;23694;43.274;26.924;2023-04-07T07:13:27;98852.22;;;8.56;37.50
37856;BME280;23694;43.274;26.924;2023-04-07T07:15:53;98844.75;;;8.64;37.83
37856;BME280;23694;43.274;26.924;2023-04-07T07:18:20;98858.44;;;8.82;38.14
37856;BME280;23694;43.274;26.924;2023-04-07T07:20:46;98860.09;;;8.97;37.16
37856;BME280;23694;43.274;26.924;2023-04-07T07:23:12;98847.31;;;8.93;37.31
37856;BME280;23694;43.274;26.924;2023-04-07T07:25:38;98858.41;;;8.96;37.34
37856;BME280;23694;43.274;26.924;2023-04-07T07:28:04;98867.25;;;9.08;37.07
37856;BME280;23694;43.274;26.924;2023-04-07T07:30:30;98870.44;;;9.13;36.88
37856;BME280;23694;43.274;26.924;2023-04-07T07:32:56;98867.22;;;9.22;36.50
37856;BME280;23694;43.274;26.924;2023-04-07T07:35:23;98867.78;;;9.27;36.96
37856;BME280;23694;43.274;26.924;2023-04-07T07:37:51;98863.16;;;9.58;36.18
37856;BME280;23694;43.274;26.924;2023-04-07T07:40:17;98866.63;;;9.98;35.60
37856;BME280;23694;43.274;26.924;2023-04-07T07:42:44;98870.75;;;10.27;35.03
37856;BME280;23694;43.274;26.924;2023-04-07T07:45:11;98867.50;;;10.36;34.61
37856;BME280;23694;43.274;26.924;2023-04-07T07:47:39;98869.59;;;10.69;34.53
37856;BME280;23694;43.274;26.924;2023-04-07T07:50:05;98872.47;;;10.90;34.09
37856;BME280;23694;43.274;26.924;2023-04-07T07:52:31;98861.00;;;11.17;33.23
37856;BME280;23694;43.274;26.924;2023-04-07T07:54:57;98870.03;;;11.00;33.00
37856;BME280;23694;43.274;26.924;2023-04-07T07:57:23;98861.91;;;11.28;32.77
37856;BME280;23694;43.274;26.924;2023-04-07T07:59:51;98866.84;;;11.44;32.04
37856;BME280;23694;43.274;26.924;2023-04-07T08:02:18;98862.69;;;11.41;32.67
37856;BME280;23694;43.274;26.924;2023-04-07T08:04:44;98868.75;;;11.66;31.84
37856;BME280;23694;43.274;26.924;2023-04-07T08:07:11;98865.63;;;11.61;31.38
37856;BME280;23694;43.274;26.924;2023-04-07T08:09:37;98871.81;;;11.60;32.18
37856;BME280;23694;43.274;26.924;2023-04-07T08:12:03;98864.63;;;11.51;32.35
37856;BME280;23694;43.274;26.924;2023-04-07T08:14:29;98866.81;;;11.81;32.20
37856;BME280;23694;43.274;26.924;2023-04-07T08:16:56;98870.13;;;12.18;31.66
37856;BME280;23694;43.274;26.924;2023-04-07T08:19:22;98860.97;;;12.23;31.31
37856;BME280;23694;43.274;26.924;2023-04-07T08:21:48;98864.34;;;12.36;31.54
37856;BME280;23694;43.274;26.924;2023-04-07T08:24:14;98868.25;;;12.31;31.77
37856;BME280;23694;43.274;26.924;2023-04-07T08:26:40;98873.44;;;12.55;31.88
37856;BME280;23694;43.274;26.924;2023-04-07T08:29:06;98866.66;;;12.06;32.45
37856;BME280;23694;43.274;26.924;2023-04-07T08:31:32;98867.16;;;12.22;31.90
37856;BME280;23694;43.274;26.924;2023-04-07T08:33:58;98870.19;;;12.51;32.09
37856;BME280;23694;43.274;26.924;2023-04-07T08:36:25;98870.44;;;12.70;31.15
37856;BME280;23694;43.274;26.924;2023-04-07T08:38:52;98876.16;;;12.42;32.03
37856;BME280;23694;43.274;26.924;2023-04-07T08:41:46;98878.09;;;12.62;31.44
37856;BME280;23694;43.274;26.924;2023-04-07T08:44:14;98867.16;;;12.22;32.02
37856;BME280;23694;43.274;26.924;2023-04-07T08:46:40;98878.00;;;12.18;32.31
37856;BME280;23694;43.274;26.924;2023-04-07T08:49:08;98878.81;;;12.07;31.82
37856;BME280;23694;43.274;26.924;2023-04-07T08:51:36;98878.91;;;11.47;32.42
37856;BME280;23694;43.274;26.924;2023-04-07T08:54:12;98869.16;;;11.49;32.30
37856;BME280;23694;43.274;26.924;2023-04-07T08:56:40;98881.03;;;10.43;33.34
37856;BME280;23694;43.274;26.924;2023-04-07T08:59:09;98882.94;;;9.62;34.49
37856;BME280;23694;43.274;26.924;2023-04-07T09:01:36;98879.09;;;9.67;34.41
37856;BME280;23694;43.274;26.924;2023-04-07T09:04:03;98885.03;;;9.30;35.36
37856;BME280;23694;43.274;26.924;2023-04-07T09:06:30;98872.13;;;9.80;35.12
37856;BME280;23694;43.274;26.924;2023-04-07T09:08:57;98876.25;;;10.10;34.09
37856;BME280;23694;43.274;26.924;2023-04-07T09:11:25;98877.69;;;9.89;35.62
37856;BME280;23694;43.274;26.924;2023-04-07T09:13:51;98888.13;;;9.49;37.00
37856;BME280;23694;43.274;26.924;2023-04-07T09:16:17;98894.59;;;9.02;36.80
37856;BME280;23694;43.274;26.924;2023-04-07T09:18:44;98879.84;;;9.42;37.25
37856;BME280;23694;43.274;26.924;2023-04-07T09:21:10;98897.06;;;8.18;39.69
37856;BME280;23694;43.274;26.924;2023-04-07T09:23:38;98897.53;;;8.69;39.06
37856;BME280;23694;43.274;26.924;2023-04-07T09:26:31;98895.91;;;8.38;39.40
37856;BME280;23694;43.274;26.924;2023-04-07T09:29:00;98892.88;;;8.74;38.52
37856;BME280;23694;43.274;26.924;2023-04-07T09:31:44;98894.81;;;8.42;39.17
37856;BME280;23694;43.274;26.924;2023-04-07T09:34:35;98883.00;;;9.06;38.45
37856;BME280;23694;43.274;26.924;2023-04-07T09:37:02;98884.38;;;9.26;37.63
37856;BME280;23694;43.274;26.924;2023-04-07T09:39:29;98885.22;;;9.27;37.64
37856;BME280;23694;43.274;26.924;2023-04-07T09:41:55;98883.41;;;9.41;37.66
37856;BME280;23694;43.274;26.924;2023-04-07T09:44:23;98892.91;;;9.15;38.18
37856;BME280;23694;43.274;26.924;2023-04-07T09:46:57;98885.53;;;9.76;37.02
37856;BME280;23694;43.274;26.924;2023-04-07T09:49:24;98884.06;;;9.84;36.89
37856;BME280;23694;43.274;26.924;2023-04-07T09:52:00;98883.38;;;10.08;36.20
37856;BME280;23694;43.274;26.924;2023-04-07T09:54:37;98881.16;;;9.89;36.76
37856;BME280;23694;43.274;26.924;2023-04-07T09:57:05;98877.81;;;9.60;36.71
37856;BME280;23694;43.274;26.924;2023-04-07T09:59:33;98887.97;;;9.65;36.39
37856;BME280;23694;43.274;26.924;2023-04-07T10:02:00;98882.19;;;9.87;36.46
37856;BME280;23694;43.274;26.924;2023-04-07T10:04:27;98880.94;;;9.52;36.55
37856;BME280;23694;43.274;26.924;2023-04-07T10:06:55;98882.50;;;9.82;37.16
37856;BME280;23694;43.274;26.924;2023-04-07T10:09:22;98879.78;;;10.48;35.61
37856;BME280;23694;43.274;26.924;2023-04-07T10:11:50;98883.03;;;10.52;35.43
37856;BME280;23694;43.274;26.924;2023-04-07T10:14:18;98888.97;;;10.79;35.17
37856;BME280;23694;43.274;26.924;2023-04-07T10:16:46;98870.00;;;10.38;35.26
37856;BME280;23694;43.274;26.924;2023-04-07T10:19:13;98884.41;;;9.93;36.08
37856;BME280;23694;43.274;26.924;2023-04-07T10:21:40;98872.91;;;9.95;36.16
37856;BME280;23694;43.274;26.924;2023-04-07T10:24:57;98877.97;;;10.62;34.84
37856;BME280;23694;43.274;26.924;2023-04-07T10:26:58;98893.78;;;10.73;34.76
37856;BME280;23694;43.274;26.924;2023-04-07T10:29:28;98876.94;;;10.39;36.13
37856;BME280;23694;43.274;26.924;2023-04-07T10:31:59;98877.03;;;10.63;35.22
37856;BME280;23694;43.274;26.924;2023-04-07T10:37:18;98873.78;;;9.42;36.78
37856;BME280;23694;43.274;26.924;2023-04-07T10:39:47;98869.38;;;9.69;37.47
37856;BME280;23694;43.274;26.924;2023-04-07T10:45:02;98856.19;;;9.71;37.37
37856;BME280;23694;43.274;26.924;2023-04-07T10:47:29;98862.13;;;10.12;36.75
37856;BME280;23694;43.274;26.924;2023-04-07T10:50:19;98867.25;;;10.14;37.41
37856;BME280;23694;43.274;26.924;2023-04-07T10:52:47;98871.81;;;9.45;37.93
37856;BME280;23694;43.274;26.924;2023-04-07T10:55:34;98863.47;;;9.53;38.72
37856;BME280;23694;43.274;26.924;2023-04-07T10:58:28;98856.78;;;10.14;37.24
37856;BME280;23694;43.274;26.924;2023-04-07T11:03:31;98868.91;;;9.90;36.64
37856;BME280;23694;43.274;26.924;2023-04-07T11:06:05;98862.97;;;10.13;36.17
37856;BME280;23694;43.274;26.924;2023-04-07T11:08:38;98851.28;;;10.57;35.56
37856;BME280;23694;43.274;26.924;2023-04-07T11:11:07;98862.88;;;10.14;36.41
37856;BME280;23694;43.274;26.924;2023-04-07T11:13:45;98852.06;;;10.06;36.82
37856;BME280;23694;43.274;26.924;2023-04-07T11:16:13;98867.53;;;9.03;38.72
37856;BME280;23694;43.274;26.924;2023-04-07T11:18:40;98865.38;;;9.64;37.88
37856;BME280;23694;43.274;26.924;2023-04-07T11:21:07;98850.19;;;9.96;37.36
37856;BME280;23694;43.274;26.924;2023-04-07T11:23:41;98857.00;;;9.98;37.89
37856;BME280;23694;43.274;26.924;2023-04-07T11:26:08;98863.28;;;9.96;38.05
37856;BME280;23694;43.274;26.924;2023-04-07T11:28:49;98860.13;;;9.91;38.00
37856;BME280;23694;43.274;26.924;2023-04-07T11:31:26;98863.16;;;9.58;37.66
37856;BME280;23694;43.274;26.924;2023-04-07T11:33:55;98854.66;;;9.81;38.04
37856;BME280;23694;43.274;26.924;2023-04-07T11:36:37;98868.56;;;9.42;38.11
37856;BME280;23694;43.274;26.924;2023-04-07T11:39:03;98868.94;;;10.15;37.53
37856;BME280;23694;43.274;26.924;2023-04-07T11:41:31;98862.81;;;9.76;37.49
37856;BME280;23694;43.274;26.924;2023-04-07T11:44:11;98868.19;;;9.61;38.07
37856;BME280;23694;43.274;26.924;2023-04-07T11:46:58;98873.56;;;10.24;36.44
37856;BME280;23694;43.274;26.924;2023-04-07T11:49:26;98868.66;;;10.32;36.01
37856;BME280;23694;43.274;26.924;2023-04-07T11:52:04;98873.22;;;10.16;36.27
37856;BME280;23694;43.274;26.924;2023-04-07T11:54:46;98867.78;;;10.06;36.59
37856;BME280;23694;43.274;26.924;2023-04-07T11:57:23;98871.38;;;10.56;35.86
37856;BME280;23694;43.274;26.924;2023-04-07T11:59:50;98864.22;;;10.07;36.69
37856;BME280;23694;43.274;26.924;2023-04-07T12:02:32;98868.44;;;10.23;36.67
37856;BME280;23694;43.274;26.924;2023-04-07T12:04:58;98867.06;;;10.80;36.27
37856;BME280;23694;43.274;26.924;2023-04-07T12:07:25;98864.63;;;10.90;35.65
37856;BME280;23694;43.274;26.924;2023-04-07T12:09:53;98868.69;;;10.45;36.08
37856;BME280;23694;43.274;26.924;2023-04-07T12:12:29;98875.38;;;10.62;36.39
37856;BME280;23694;43.274;26.924;2023-04-07T12:14:57;98880.25;;;10.15;36.75
37856;BME280;23694;43.274;26.924;2023-04-07T12:17:25;98873.47;;;10.38;36.39
37856;BME280;23694;43.274;26.924;2023-04-07T12:19:52;98868.00;;;10.79;35.71
37856;BME280;23694;43.274;26.924;2023-04-07T12:22:18;98870.72;;;10.78;36.05
37856;BME280;23694;43.274;26.924;2023-04-07T12:24:44;98876.09;;;10.64;36.70
37856;BME280;23694;43.274;26.924;2023-04-07T12:27:11;98860.22;;;11.51;35.07
37856;BME280;23694;43.274;26.924;2023-04-07T12:29:37;98860.63;;;11.69;34.36
37856;BME280;23694;43.274;26.924;2023-04-07T12:32:03;98854.41;;;11.35;35.13
37856;BME280;23694;43.274;26.924;2023-04-07T12:34:29;98863.34;;;11.08;35.89
37856;BME280;23694;43.274;26.924;2023-04-07T12:36:55;98862.63;;;10.94;35.95
37856;BME280;23694;43.274;26.924;2023-04-07T12:39:21;98857.25;;;11.32;35.77
37856;BME280;23694;43.274;26.924;2023-04-07T12:41:47;98859.94;;;11.43;35.76
37856;BME280;23694;43.274;26.924;2023-04-07T12:44:17;98863.91;;;11.72;35.52
37856;BME280;23694;43.274;26.924;2023-04-07T12:46:44;98855.81;;;11.52;35.79
37856;BME280;23694;43.274;26.924;2023-04-07T12:49:10;98864.25;;;12.03;34.66
37856;BME280;23694;43.274;26.924;2023-04-07T12:51:36;98862.16;;;12.30;34.19
37856;BME280;23694;43.274;26.924;2023-04-07T12:54:04;98854.78;;;12.47;34.20
37856;BME280;23694;43.274;26.924;2023-04-07T12:56:30;98859.66;;;12.29;34.52
37856;BME280;23694;43.274;26.924;2023-04-07T12:58:57;98859.19;;;11.78;35.82
37856;BME280;23694;43.274;26.924;2023-04-07T13:01:23;98859.44;;;11.38;36.49
37856;BME280;23694;43.274;26.924;2023-04-07T13:03:49;98855.53;;;11.91;36.03
37856;BME280;23694;43.274;26.924;2023-04-07T13:06:15;98860.16;;;11.64;36.01
37856;BME280;23694;43.274;26.924;2023-04-07T13:08:42;98856.66;;;11.28;36.90
37856;BME280;23694;43.274;26.924;2023-04-07T13:11:08;98863.00;;;11.13;37.22
37856;BME280;23694;43.274;26.924;2023-04-07T13:13:34;98859.88;;;11.32;37.14
37856;BME280;23694;43.274;26.924;2023-04-07T13:16:00;98862.78;;;11.16;37.89